sensor_id;sensor_type;location;lat;lon;timestamp;P1;P2;P0
61592;PMS5003;70568;51.378;-1.342;2023-07-30T00:02:12;3;2;
61592;PMS5003;70568;51.378;-1.342;2023-07-30T00:04:39;2;2;
61592;PMS5003;70568;51.378;-1.342;2023-07-30T00:07:06;2;2;
61592;PMS5003;70568;51.378;-1.342;2023-07-30T00:09:32;4;2;
61592;PMS5003;70568;51.378;-1.342;2023-07-30T00:11:59;2;1;
61592;PMS5003;70568;51.378;-1.342;2023-07-30T00:14:25;3;2;
61592;PMS5003;70568;51.378;-1.342;2023-07-30T00:16:51;3;3;
61592;PMS5003;70568;51.378;-1.342;2023-07-30T00:19:18;3;1;
61592;PMS5003;70568;51.378;-1.342;2023-07-30T00:21:45;4;4;
61592;PMS5003;70568;51.378;-1.342;2023-07-30T00:24:12;2;2;
61592;PMS5003;70568;51.378;-1.342;2023-07-30T00:26:39;2;2;
61592;PMS5003;70568;51.378;-1.342;2023-07-30T00:29:05;3;2;
61592;PMS5003;70568;51.378;-1.342;2023-07-30T00:31:32;3;2;
61592;PMS5003;70568;51.378;-1.342;2023-07-30T00:33:58;4;2;
61592;PMS5003;70568;51.378;-1.342;2023-07-30T00:36:24;2;1;
61592;PMS5003;70568;51.378;-1.342;2023-07-30T00:38:51;2;2;
61592;PMS5003;70568;51.378;-1.342;2023-07-30T00:41:17;3;2;
61592;PMS5003;70568;51.378;-1.342;2023-07-30T00:43:44;4;2;
61592;PMS5003;70568;51.378;-1.342;2023-07-30T00:46:11;3;2;
61592;PMS5003;70568;51.378;-1.342;2023-07-30T00:48:38;1;1;
61592;PMS5003;70568;51.378;-1.342;2023-07-30T00:51:06;1;1;
61592;PMS5003;70568;51.378;-1.342;2023-07-30T00:53:34;2;2;
61592;PMS5003;70568;51.378;-1.342;2023-07-30T00:56:01;1;1;
61592;PMS5003;70568;51.378;-1.342;2023-07-30T00:58:29;1;1;
61592;PMS5003;70568;51.378;-1.342;2023-07-30T01:00:56;1;1;
61592;PMS5003;70568;51.378;-1.342;2023-07-30T01:03:22;2;2;
61592;PMS5003;70568;51.378;-1.342;2023-07-30T01:05:49;0;0;
61592;PMS5003;70568;51.378;-1.342;2023-07-30T01:08:16;4;3;
61592;PMS5003;70568;51.378;-1.342;2023-07-30T01:10:42;3;2;
61592;PMS5003;70568;51.378;-1.342;2023-07-30T01:13:10;2;2;
61592;PMS5003;70568;51.378;-1.342;2023-07-30T01:15:39;2;1;
61592;PMS5003;70568;51.378;-1.342;2023-07-30T01:18:07;3;1;
61592;PMS5003;70568;51.378;-1.342;2023-07-30T01:20:33;3;2;
61592;PMS5003;70568;51.378;-1.342;2023-07-30T01:23:00;3;3;
61592;PMS5003;70568;51.378;-1.342;2023-07-30T01:25:27;5;5;
61592;PMS5003;70568;51.378;-1.342;2023-07-30T01:27:59;2;2;
61592;PMS5003;70568;51.378;-1.342;2023-07-30T01:30:29;4;2;
61592;PMS5003;70568;51.378;-1.342;2023-07-30T01:32:58;2;1;
61592;PMS5003;70568;51.378;-1.342;2023-07-30T01:35:26;1;1;
61592;PMS5003;70568;51.378;-1.342;2023-07-30T01:37:54;3;2;
61592;PMS5003;70568;51.378;-1.342;2023-07-30T01:40:22;2;2;
61592;PMS5003;70568;51.378;-1.342;2023-07-30T01:42:48;3;1;
61592;PMS5003;70568;51.378;-1.342;2023-07-30T01:45:16;3;3;
61592;PMS5003;70568;51.378;-1.342;2023-07-30T01:47:43;2;1;
61592;PMS5003;70568;51.378;-1.342;2023-07-30T01:50:10;2;2;
61592;PMS5003;70568;51.378;-1.342;2023-07-30T01:52:37;3;3;
61592;PMS5003;70568;51.378;-1.342;2023-07-30T01:55:04;2;2;
61592;PMS5003;70568;51.378;-1.342;2023-07-30T01:57:32;1;1;
61592;PMS5003;70568;51.378;-1.342;2023-07-30T01:59:59;3;2;
61592;PMS5003;70568;51.378;-1.342;2023-07-30T02:02:25;4;3;
61592;PMS5003;70568;51.378;-1.342;2023-07-30T02:04:52;1;1;
61592;PMS5003;70568;51.378;-1.342;2023-07-30T02:07:19;4;4;
61592;PMS5003;70568;51.378;-1.342;2023-07-30T02:09:45;1;1;
61592;PMS5003;70568;51.378;-1.342;2023-07-30T02:12:12;2;1;
61592;PMS5003;70568;51.378;-1.342;2023-07-30T02:14:39;4;4;
61592;PMS5003;70568;51.378;-1.342;2023-07-30T02:17:06;2;2;
61592;PMS5003;70568;51.378;-1.342;2023-07-30T02:19:32;1;1;
61592;PMS5003;70568;51.378;-1.342;2023-07-30T02:21:58;3;2;
61592;PMS5003;70568;51.378;-1.342;2023-07-30T02:24:25;2;2;
61592;PMS5003;70568;51.378;-1.342;2023-07-30T02:26:51;2;1;
61592;PMS5003;70568;51.378;-1.342;2023-07-30T02:29:18;1;1;
61592;PMS5003;70568;51.378;-1.342;2023-07-30T02:31:44;2;1;
61592;PMS5003;70568;51.378;-1.342;2023-07-30T02:34:11;4;1;
61592;PMS5003;70568;51.378;-1.342;2023-07-30T02:36:38;0;0;
61592;PMS5003;70568;51.378;-1.342;2023-07-30T02:39:05;2;2;
61592;PMS5003;70568;51.378;-1.342;2023-07-30T02:41:32;3;1;
61592;PMS5003;70568;51.378;-1.342;2023-07-30T02:43:58;2;2;
61592;PMS5003;70568;51.378;-1.342;2023-07-30T02:46:25;2;2;
61592;PMS5003;70568;51.378;-1.342;2023-07-30T02:48:51;3;2;
61592;PMS5003;70568;51.378;-1.342;2023-07-30T02:51:17;2;2;
61592;PMS5003;70568;51.378;-1.342;2023-07-30T02:53:44;4;3;
61592;PMS5003;70568;51.378;-1.342;2023-07-30T02:56:11;2;2;
61592;PMS5003;70568;51.378;-1.342;2023-07-30T02:58:38;5;4;
61592;PMS5003;70568;51.378;-1.342;2023-07-30T03:01:05;3;2;
61592;PMS5003;70568;51.378;-1.342;2023-07-30T03:03:32;2;2;
61592;PMS5003;70568;51.378;-1.342;2023-07-30T03:05:58;2;2;
61592;PMS5003;70568;51.378;-1.342;2023-07-30T03:08:25;2;2;
61592;PMS5003;70568;51.378;-1.342;2023-07-30T03:10:51;2;2;
61592;PMS5003;70568;51.378;-1.342;2023-07-30T03:13:18;6;5;
61592;PMS5003;70568;51.378;-1.342;2023-07-30T03:15:45;2;2;
61592;PMS5003;70568;51.378;-1.342;2023-07-30T03:18:12;5;4;
61592;PMS5003;70568;51.378;-1.342;2023-07-30T03:20:39;3;3;
61592;PMS5003;70568;51.378;-1.342;2023-07-30T03:23:06;2;1;
61592;PMS5003;70568;51.378;-1.342;2023-07-30T03:25:32;4;3;
61592;PMS5003;70568;51.378;-1.342;2023-07-30T03:27:59;3;3;
61592;PMS5003;70568;51.378;-1.342;2023-07-30T03:30:26;3;3;
61592;PMS5003;70568;51.378;-1.342;2023-07-30T03:32:52;4;3;
61592;PMS5003;70568;51.378;-1.342;2023-07-30T03:35:19;4;2;
61592;PMS5003;70568;51.378;-1.342;2023-07-30T03:37:46;3;3;
61592;PMS5003;70568;51.378;-1.342;2023-07-30T03:40:12;4;4;
61592;PMS5003;70568;51.378;-1.342;2023-07-30T03:42:39;2;2;
61592;PMS5003;70568;51.378;-1.342;2023-07-30T03:45:06;3;3;
61592;PMS5003;70568;51.378;-1.342;2023-07-30T03:47:33;3;2;
61592;PMS5003;70568;51.378;-1.342;2023-07-30T03:49:59;3;3;
61592;PMS5003;70568;51.378;-1.342;2023-07-30T03:52:26;5;4;
61592;PMS5003;70568;51.378;-1.342;2023-07-30T03:54:52;4;3;
61592;PMS5003;70568;51.378;-1.342;2023-07-30T03:57:19;5;3;
61592;PMS5003;70568;51.378;-1.342;2023-07-30T03:59:46;4;3;
61592;PMS5003;70568;51.378;-1.342;2023-07-30T04:02:13;2;2;
61592;PMS5003;70568;51.378;-1.342;2023-07-30T04:04:39;4;3;
61592;PMS5003;70568;51.378;-1.342;2023-07-30T04:07:06;4;2;
61592;PMS5003;70568;51.378;-1.342;2023-07-30T04:09:32;3;3;
61592;PMS5003;70568;51.378;-1.342;2023-07-30T04:11:59;2;1;
61592;PMS5003;70568;51.378;-1.342;2023-07-30T04:14:25;3;3;
61592;PMS5003;70568;51.378;-1.342;2023-07-30T04:16:52;3;3;
61592;PMS5003;70568;51.378;-1.342;2023-07-30T04:19:18;3;2;
61592;PMS5003;70568;51.378;-1.342;2023-07-30T04:21:45;2;2;
61592;PMS5003;70568;51.378;-1.342;2023-07-30T04:24:12;2;2;
61592;PMS5003;70568;51.378;-1.342;2023-07-30T04:26:39;3;3;
61592;PMS5003;70568;51.378;-1.342;2023-07-30T04:29:05;4;3;
61592;PMS5003;70568;51.378;-1.342;2023-07-30T04:31:32;4;4;
61592;PMS5003;70568;51.378;-1.342;2023-07-30T04:33:59;2;2;
61592;PMS5003;70568;51.378;-1.342;2023-07-30T04:36:25;4;4;
61592;PMS5003;70568;51.378;-1.342;2023-07-30T04:38:53;4;4;
61592;PMS5003;70568;51.378;-1.342;2023-07-30T04:41:20;6;2;
61592;PMS5003;70568;51.378;-1.342;2023-07-30T04:43:47;3;3;
61592;PMS5003;70568;51.378;-1.342;2023-07-30T04:46:13;2;2;
61592;PMS5003;70568;51.378;-1.342;2023-07-30T04:48:40;2;2;
61592;PMS5003;70568;51.378;-1.342;2023-07-30T04:51:07;2;2;
61592;PMS5003;70568;51.378;-1.342;2023-07-30T04:53:34;1;1;
61592;PMS5003;70568;51.378;-1.342;2023-07-30T04:56:00;6;3;
61592;PMS5003;70568;51.378;-1.342;2023-07-30T04:58:27;2;2;
61592;PMS5003;70568;51.378;-1.342;2023-07-30T05:00:53;2;2;
61592;PMS5003;70568;51.378;-1.342;2023-07-30T05:03:20;3;3;
61592;PMS5003;70568;51.378;-1.342;2023-07-30T05:05:46;3;3;
61592;PMS5003;70568;51.378;-1.342;2023-07-30T05:08:12;2;2;
61592;PMS5003;70568;51.378;-1.342;2023-07-30T05:10:39;6;6;
61592;PMS5003;70568;51.378;-1.342;2023-07-30T05:13:06;5;2;
61592;PMS5003;70568;51.378;-1.342;2023-07-30T05:15:32;4;4;
61592;PMS5003;70568;51.378;-1.342;2023-07-30T05:17:59;3;3;
61592;PMS5003;70568;51.378;-1.342;2023-07-30T05:20:25;4;3;
61592;PMS5003;70568;51.378;-1.342;2023-07-30T05:22:52;6;5;
61592;PMS5003;70568;51.378;-1.342;2023-07-30T05:25:19;5;5;
61592;PMS5003;70568;51.378;-1.342;2023-07-30T05:27:46;4;2;
61592;PMS5003;70568;51.378;-1.342;2023-07-30T05:30:12;4;3;
61592;PMS5003;70568;51.378;-1.342;2023-07-30T05:32:39;1;1;
61592;PMS5003;70568;51.378;-1.342;2023-07-30T05:35:06;3;3;
61592;PMS5003;70568;51.378;-1.342;2023-07-30T05:37:33;5;5;
61592;PMS5003;70568;51.378;-1.342;2023-07-30T05:40:00;8;8;
61592;PMS5003;70568;51.378;-1.342;2023-07-30T05:42:27;4;3;
61592;PMS5003;70568;51.378;-1.342;2023-07-30T05:44:54;3;3;
61592;PMS5003;70568;51.378;-1.342;2023-07-30T05:47:22;3;2;
61592;PMS5003;70568;51.378;-1.342;2023-07-30T05:49:49;4;4;
61592;PMS5003;70568;51.378;-1.342;2023-07-30T05:52:16;4;3;
61592;PMS5003;70568;51.378;-1.342;2023-07-30T05:54:43;3;2;
61592;PMS5003;70568;51.378;-1.342;2023-07-30T05:57:10;4;4;
61592;PMS5003;70568;51.378;-1.342;2023-07-30T05:59:37;5;4;
61592;PMS5003;70568;51.378;-1.342;2023-07-30T06:02:04;6;6;
61592;PMS5003;70568;51.378;-1.342;2023-07-30T06:04:31;3;3;
61592;PMS5003;70568;51.378;-1.342;2023-07-30T06:06:59;4;3;
61592;PMS5003;70568;51.378;-1.342;2023-07-30T06:09:26;4;3;
61592;PMS5003;70568;51.378;-1.342;2023-07-30T06:11:54;3;3;
61592;PMS5003;70568;51.378;-1.342;2023-07-30T06:14:22;3;3;
61592;PMS5003;70568;51.378;-1.342;2023-07-30T06:16:50;4;3;
61592;PMS5003;70568;51.378;-1.342;2023-07-30T06:19:17;3;2;
61592;PMS5003;70568;51.378;-1.342;2023-07-30T06:21:44;4;3;
61592;PMS5003;70568;51.378;-1.342;2023-07-30T06:24:11;4;4;
61592;PMS5003;70568;51.378;-1.342;2023-07-30T06:26:39;2;2;
61592;PMS5003;70568;51.378;-1.342;2023-07-30T06:29:06;4;3;
61592;PMS5003;70568;51.378;-1.342;2023-07-30T06:31:32;5;4;
61592;PMS5003;70568;51.378;-1.342;2023-07-30T06:33:59;5;3;
61592;PMS5003;70568;51.378;-1.342;2023-07-30T06:36:27;3;2;
61592;PMS5003;70568;51.378;-1.342;2023-07-30T06:38:54;5;4;
61592;PMS5003;70568;51.378;-1.342;2023-07-30T06:41:21;2;2;
61592;PMS5003;70568;51.378;-1.342;2023-07-30T06:43:48;7;4;
61592;PMS5003;70568;51.378;-1.342;2023-07-30T06:46:14;3;3;
61592;PMS5003;70568;51.378;-1.342;2023-07-30T06:48:41;1;1;
61592;PMS5003;70568;51.378;-1.342;2023-07-30T06:51:09;3;3;
61592;PMS5003;70568;51.378;-1.342;2023-07-30T06:53:36;4;3;
61592;PMS5003;70568;51.378;-1.342;2023-07-30T06:56:03;4;4;
61592;PMS5003;70568;51.378;-1.342;2023-07-30T06:58:30;4;3;
61592;PMS5003;70568;51.378;-1.342;2023-07-30T07:00:56;4;4;
61592;PMS5003;70568;51.378;-1.342;2023-07-30T07:03:23;3;3;
61592;PMS5003;70568;51.378;-1.342;2023-07-30T07:05:52;3;3;
61592;PMS5003;70568;51.378;-1.342;2023-07-30T07:08:19;3;3;
61592;PMS5003;70568;51.378;-1.342;2023-07-30T07:10:46;5;4;
61592;PMS5003;70568;51.378;-1.342;2023-07-30T07:13:12;5;4;
61592;PMS5003;70568;51.378;-1.342;2023-07-30T07:15:39;5;5;
61592;PMS5003;70568;51.378;-1.342;2023-07-30T07:18:07;4;3;
61592;PMS5003;70568;51.378;-1.342;2023-07-30T07:20:34;1;1;
61592;PMS5003;70568;51.378;-1.342;2023-07-30T07:23:01;4;4;
61592;PMS5003;70568;51.378;-1.342;2023-07-30T07:25:27;3;3;
61592;PMS5003;70568;51.378;-1.342;2023-07-30T07:27:54;10;8;
61592;PMS5003;70568;51.378;-1.342;2023-07-30T07:30:21;5;3;
61592;PMS5003;70568;51.378;-1.342;2023-07-30T07:32:48;3;2;
61592;PMS5003;70568;51.378;-1.342;2023-07-30T07:35:14;6;4;
61592;PMS5003;70568;51.378;-1.342;2023-07-30T07:37:41;7;5;
61592;PMS5003;70568;51.378;-1.342;2023-07-30T07:40:08;3;2;
61592;PMS5003;70568;51.378;-1.342;2023-07-30T07:42:35;3;3;
61592;PMS5003;70568;51.378;-1.342;2023-07-30T07:45:02;4;3;
61592;PMS5003;70568;51.378;-1.342;2023-07-30T07:47:29;4;3;
61592;PMS5003;70568;51.378;-1.342;2023-07-30T07:49:55;4;4;
61592;PMS5003;70568;51.378;-1.342;2023-07-30T07:52:21;5;4;
61592;PMS5003;70568;51.378;-1.342;2023-07-30T07:54:48;4;3;
61592;PMS5003;70568;51.378;-1.342;2023-07-30T07:57:15;4;3;
61592;PMS5003;70568;51.378;-1.342;2023-07-30T07:59:42;6;5;
61592;PMS5003;70568;51.378;-1.342;2023-07-30T08:02:09;2;2;
61592;PMS5003;70568;51.378;-1.342;2023-07-30T08:04:36;4;4;
61592;PMS5003;70568;51.378;-1.342;2023-07-30T08:07:02;3;3;
61592;PMS5003;70568;51.378;-1.342;2023-07-30T08:09:29;6;4;
61592;PMS5003;70568;51.378;-1.342;2023-07-30T08:11:56;5;3;
61592;PMS5003;70568;51.378;-1.342;2023-07-30T08:14:24;3;3;
61592;PMS5003;70568;51.378;-1.342;2023-07-30T08:16:51;3;3;
61592;PMS5003;70568;51.378;-1.342;2023-07-30T08:19:18;8;7;
61592;PMS5003;70568;51.378;-1.342;2023-07-30T08:21:44;5;5;
61592;PMS5003;70568;51.378;-1.342;2023-07-30T08:24:11;6;3;
61592;PMS5003;70568;51.378;-1.342;2023-07-30T08:26:38;4;4;
61592;PMS5003;70568;51.378;-1.342;2023-07-30T08:29:05;1;1;
61592;PMS5003;70568;51.378;-1.342;2023-07-30T08:31:31;2;2;
61592;PMS5003;70568;51.378;-1.342;2023-07-30T08:33:58;3;3;
61592;PMS5003;70568;51.378;-1.342;2023-07-30T08:36:24;4;4;
61592;PMS5003;70568;51.378;-1.342;2023-07-30T08:38:51;3;3;
61592;PMS5003;70568;51.378;-1.342;2023-07-30T08:41:18;1;1;
61592;PMS5003;70568;51.378;-1.342;2023-07-30T08:43:45;4;3;
61592;PMS5003;70568;51.378;-1.342;2023-07-30T08:46:12;3;2;
61592;PMS5003;70568;51.378;-1.342;2023-07-30T08:48:39;2;2;
61592;PMS5003;70568;51.378;-1.342;2023-07-30T08:51:06;3;3;
61592;PMS5003;70568;51.378;-1.342;2023-07-30T08:53:33;2;2;
61592;PMS5003;70568;51.378;-1.342;2023-07-30T08:56:00;4;3;
61592;PMS5003;70568;51.378;-1.342;2023-07-30T08:58:28;3;3;
61592;PMS5003;70568;51.378;-1.342;2023-07-30T09:00:55;5;5;
61592;PMS5003;70568;51.378;-1.342;2023-07-30T09:03:24;5;4;
61592;PMS5003;70568;51.378;-1.342;2023-07-30T09:05:53;5;3;
61592;PMS5003;70568;51.378;-1.342;2023-07-30T09:08:20;3;2;
61592;PMS5003;70568;51.378;-1.342;2023-07-30T09:10:47;5;4;
61592;PMS5003;70568;51.378;-1.342;2023-07-30T09:13:14;3;3;
61592;PMS5003;70568;51.378;-1.342;2023-07-30T09:15:48;3;3;
61592;PMS5003;70568;51.378;-1.342;2023-07-30T09:18:16;4;4;
61592;PMS5003;70568;51.378;-1.342;2023-07-30T09:20:43;6;5;
61592;PMS5003;70568;51.378;-1.342;2023-07-30T09:23:10;3;3;
61592;PMS5003;70568;51.378;-1.342;2023-07-30T09:25:38;6;6;
61592;PMS5003;70568;51.378;-1.342;2023-07-30T09:28:05;6;6;
61592;PMS5003;70568;51.378;-1.342;2023-07-30T09:30:32;5;3;
61592;PMS5003;70568;51.378;-1.342;2023-07-30T09:32:59;6;3;
61592;PMS5003;70568;51.378;-1.342;2023-07-30T09:35:25;4;3;
61592;PMS5003;70568;51.378;-1.342;2023-07-30T09:37:57;4;4;
61592;PMS5003;70568;51.378;-1.342;2023-07-30T09:40:31;3;3;
61592;PMS5003;70568;51.378;-1.342;2023-07-30T09:42:58;3;3;
61592;PMS5003;70568;51.378;-1.342;2023-07-30T09:45:25;5;5;
61592;PMS5003;70568;51.378;-1.342;2023-07-30T09:47:53;5;3;
61592;PMS5003;70568;51.378;-1.342;2023-07-30T09:50:21;4;4;
61592;PMS5003;70568;51.378;-1.342;2023-07-30T09:52:48;7;5;
61592;PMS5003;70568;51.378;-1.342;2023-07-30T09:55:16;3;3;
61592;PMS5003;70568;51.378;-1.342;2023-07-30T09:57:42;3;2;
61592;PMS5003;70568;51.378;-1.342;2023-07-30T10:00:09;2;2;
61592;PMS5003;70568;51.378;-1.342;2023-07-30T10:02:38;2;1;
61592;PMS5003;70568;51.378;-1.342;2023-07-30T10:05:08;3;3;
61592;PMS5003;70568;51.378;-1.342;2023-07-30T10:07:40;2;2;
61592;PMS5003;70568;51.378;-1.342;2023-07-30T10:10:15;1;1;
61592;PMS5003;70568;51.378;-1.342;2023-07-30T10:12:42;2;1;
61592;PMS5003;70568;51.378;-1.342;2023-07-30T10:15:10;1;1;
61592;PMS5003;70568;51.378;-1.342;2023-07-30T10:17:37;2;2;
61592;PMS5003;70568;51.378;-1.342;2023-07-30T10:20:21;0;0;
61592;PMS5003;70568;51.378;-1.342;2023-07-30T10:22:50;1;1;
61592;PMS5003;70568;51.378;-1.342;2023-07-30T10:25:20;2;2;
61592;PMS5003;70568;51.378;-1.342;2023-07-30T10:27:50;0;0;
61592;PMS5003;70568;51.378;-1.342;2023-07-30T10:30:18;1;0;
61592;PMS5003;70568;51.378;-1.342;2023-07-30T10:32:58;3;2;
61592;PMS5003;70568;51.378;-1.342;2023-07-30T10:35:42;1;0;
61592;PMS5003;70568;51.378;-1.342;2023-07-30T10:38:13;0;0;
61592;PMS5003;70568;51.378;-1.342;2023-07-30T10:40:41;0;0;
61592;PMS5003;70568;51.378;-1.342;2023-07-30T10:43:16;0;0;
61592;PMS5003;70568;51.378;-1.342;2023-07-30T10:45:50;0;0;
61592;PMS5003;70568;51.378;-1.342;2023-07-30T10:48:17;1;0;
61592;PMS5003;70568;51.378;-1.342;2023-07-30T10:50:45;0;0;
61592;PMS5003;70568;51.378;-1.342;2023-07-30T10:53:12;1;1;
61592;PMS5003;70568;51.378;-1.342;2023-07-30T10:55:39;0;0;
61592;PMS5003;70568;51.378;-1.342;2023-07-30T10:58:06;1;0;
61592;PMS5003;70568;51.378;-1.342;2023-07-30T11:00:33;0;0;
61592;PMS5003;70568;51.378;-1.342;2023-07-30T11:03:00;4;4;
61592;PMS5003;70568;51.378;-1.342;2023-07-30T11:05:27;2;2;
61592;PMS5003;70568;51.378;-1.342;2023-07-30T11:07:54;3;2;
61592;PMS5003;70568;51.378;-1.342;2023-07-30T11:10:20;1;1;
61592;PMS5003;70568;51.378;-1.342;2023-07-30T11:12:48;0;0;
61592;PMS5003;70568;51.378;-1.342;2023-07-30T11:15:16;2;2;
61592;PMS5003;70568;51.378;-1.342;2023-07-30T11:17:42;1;1;
61592;PMS5003;70568;51.378;-1.342;2023-07-30T11:20:21;2;2;
61592;PMS5003;70568;51.378;-1.342;2023-07-30T11:22:48;2;2;
61592;PMS5003;70568;51.378;-1.342;2023-07-30T11:25:16;2;2;
61592;PMS5003;70568;51.378;-1.342;2023-07-30T11:27:46;2;2;
61592;PMS5003;70568;51.378;-1.342;2023-07-30T11:30:13;2;2;
61592;PMS5003;70568;51.378;-1.342;2023-07-30T11:32:41;3;3;
61592;PMS5003;70568;51.378;-1.342;2023-07-30T11:35:09;2;2;
61592;PMS5003;70568;51.378;-1.342;2023-07-30T11:37:37;1;1;
61592;PMS5003;70568;51.378;-1.342;2023-07-30T11:40:06;4;3;
61592;PMS5003;70568;51.378;-1.342;2023-07-30T11:42:34;2;1;
61592;PMS5003;70568;51.378;-1.342;2023-07-30T11:45:16;2;2;
61592;PMS5003;70568;51.378;-1.342;2023-07-30T11:47:43;2;2;
61592;PMS5003;70568;51.378;-1.342;2023-07-30T11:50:10;2;2;
61592;PMS5003;70568;51.378;-1.342;2023-07-30T11:52:50;2;2;
61592;PMS5003;70568;51.378;-1.342;2023-07-30T11:55:17;2;2;
61592;PMS5003;70568;51.378;-1.342;2023-07-30T11:57:45;1;1;
61592;PMS5003;70568;51.378;-1.342;2023-07-30T12:00:13;3;1;
61592;PMS5003;70568;51.378;-1.342;2023-07-30T12:02:40;2;1;
61592;PMS5003;70568;51.378;-1.342;2023-07-30T12:05:09;2;2;
61592;PMS5003;70568;51.378;-1.342;2023-07-30T12:07:39;2;2;
61592;PMS5003;70568;51.378;-1.342;2023-07-30T12:10:07;2;2;
61592;PMS5003;70568;51.378;-1.342;2023-07-30T12:12:35;2;2;
61592;PMS5003;70568;51.378;-1.342;2023-07-30T12:15:09;0;0;
61592;PMS5003;70568;51.378;-1.342;2023-07-30T12:17:37;2;2;
61592;PMS5003;70568;51.378;-1.342;2023-07-30T12:20:04;2;2;
61592;PMS5003;70568;51.378;-1.342;2023-07-30T12:22:32;1;1;
61592;PMS5003;70568;51.378;-1.342;2023-07-30T12:24:59;1;0;
61592;PMS5003;70568;51.378;-1.342;2023-07-30T12:27:26;1;1;
61592;PMS5003;70568;51.378;-1.342;2023-07-30T12:29:54;3;2;
61592;PMS5003;70568;51.378;-1.342;2023-07-30T12:32:20;2;2;
61592;PMS5003;70568;51.378;-1.342;2023-07-30T12:34:46;2;2;
61592;PMS5003;70568;51.378;-1.342;2023-07-30T12:37:13;1;1;
61592;PMS5003;70568;51.378;-1.342;2023-07-30T12:39:40;1;1;
61592;PMS5003;70568;51.378;-1.342;2023-07-30T12:42:06;0;0;
61592;PMS5003;70568;51.378;-1.342;2023-07-30T12:44:33;1;1;
61592;PMS5003;70568;51.378;-1.342;2023-07-30T12:46:59;0;0;
61592;PMS5003;70568;51.378;-1.342;2023-07-30T12:49:25;3;2;
61592;PMS5003;70568;51.378;-1.342;2023-07-30T12:51:52;1;1;
61592;PMS5003;70568;51.378;-1.342;2023-07-30T12:54:18;0;0;
61592;PMS5003;70568;51.378;-1.342;2023-07-30T12:56:46;1;1;
61592;PMS5003;70568;51.378;-1.342;2023-07-30T12:59:12;1;1;
61592;PMS5003;70568;51.378;-1.342;2023-07-30T13:01:39;0;0;
61592;PMS5003;70568;51.378;-1.342;2023-07-30T13:04:06;0;0;
61592;PMS5003;70568;51.378;-1.342;2023-07-30T13:06:32;1;1;
61592;PMS5003;70568;51.378;-1.342;2023-07-30T13:08:58;0;0;
61592;PMS5003;70568;51.378;-1.342;2023-07-30T13:11:25;0;0;
61592;PMS5003;70568;51.378;-1.342;2023-07-30T13:13:51;2;1;
61592;PMS5003;70568;51.378;-1.342;2023-07-30T13:16:18;0;0;
61592;PMS5003;70568;51.378;-1.342;2023-07-30T13:18:44;0;0;
61592;PMS5003;70568;51.378;-1.342;2023-07-30T13:21:11;0;0;
61592;PMS5003;70568;51.378;-1.342;2023-07-30T13:23:38;0;0;
61592;PMS5003;70568;51.378;-1.342;2023-07-30T13:26:05;0;0;
61592;PMS5003;70568;51.378;-1.342;2023-07-30T13:28:32;0;0;
61592;PMS5003;70568;51.378;-1.342;2023-07-30T13:30:58;0;0;
61592;PMS5003;70568;51.378;-1.342;2023-07-30T13:33:25;1;1;
61592;PMS5003;70568;51.378;-1.342;2023-07-30T13:35:51;0;0;
61592;PMS5003;70568;51.378;-1.342;2023-07-30T13:38:18;0;0;
61592;PMS5003;70568;51.378;-1.342;2023-07-30T13:40:44;0;0;
61592;PMS5003;70568;51.378;-1.342;2023-07-30T13:43:12;0;0;
61592;PMS5003;70568;51.378;-1.342;2023-07-30T13:45:39;0;0;
61592;PMS5003;70568;51.378;-1.342;2023-07-30T13:48:06;0;0;
61592;PMS5003;70568;51.378;-1.342;2023-07-30T13:50:32;0;0;
61592;PMS5003;70568;51.378;-1.342;2023-07-30T13:52:59;0;0;
61592;PMS5003;70568;51.378;-1.342;2023-07-30T13:55:25;0;0;
61592;PMS5003;70568;51.378;-1.342;2023-07-30T13:57:52;0;0;
61592;PMS5003;70568;51.378;-1.342;2023-07-30T14:00:19;0;0;
61592;PMS5003;70568;51.378;-1.342;2023-07-30T14:02:45;0;0;
61592;PMS5003;70568;51.378;-1.342;2023-07-30T14:05:12;0;0;
61592;PMS5003;70568;51.378;-1.342;2023-07-30T14:07:39;0;0;
61592;PMS5003;70568;51.378;-1.342;2023-07-30T14:10:05;0;0;
61592;PMS5003;70568;51.378;-1.342;2023-07-30T14:12:32;0;0;
61592;PMS5003;70568;51.378;-1.342;2023-07-30T14:14:59;1;0;
61592;PMS5003;70568;51.378;-1.342;2023-07-30T14:17:25;0;0;
61592;PMS5003;70568;51.378;-1.342;2023-07-30T14:19:51;0;0;
61592;PMS5003;70568;51.378;-1.342;2023-07-30T14:22:18;0;0;
61592;PMS5003;70568;51.378;-1.342;2023-07-30T14:24:44;0;0;
61592;PMS5003;70568;51.378;-1.342;2023-07-30T14:27:11;0;0;
61592;PMS5003;70568;51.378;-1.342;2023-07-30T14:29:39;0;0;
61592;PMS5003;70568;51.378;-1.342;2023-07-30T14:32:06;0;0;
61592;PMS5003;70568;51.378;-1.342;2023-07-30T14:34:32;0;0;
61592;PMS5003;70568;51.378;-1.342;2023-07-30T14:36:59;0;0;
61592;PMS5003;70568;51.378;-1.342;2023-07-30T14:39:25;0;0;
61592;PMS5003;70568;51.378;-1.342;2023-07-30T14:41:51;0;0;
61592;PMS5003;70568;51.378;-1.342;2023-07-30T14:44:18;0;0;
61592;PMS5003;70568;51.378;-1.342;2023-07-30T14:46:44;0;0;
61592;PMS5003;70568;51.378;-1.342;2023-07-30T14:49:11;0;0;
61592;PMS5003;70568;51.378;-1.342;2023-07-30T14:51:38;0;0;
61592;PMS5003;70568;51.378;-1.342;2023-07-30T14:54:04;1;1;
61592;PMS5003;70568;51.378;-1.342;2023-07-30T14:56:31;0;0;
61592;PMS5003;70568;51.378;-1.342;2023-07-30T14:58:57;0;0;
61592;PMS5003;70568;51.378;-1.342;2023-07-30T15:01:26;0;0;
61592;PMS5003;70568;51.378;-1.342;2023-07-30T15:03:54;0;0;
61592;PMS5003;70568;51.378;-1.342;2023-07-30T15:06:21;0;0;
61592;PMS5003;70568;51.378;-1.342;2023-07-30T15:08:48;0;0;
61592;PMS5003;70568;51.378;-1.342;2023-07-30T15:11:14;0;0;
61592;PMS5003;70568;51.378;-1.342;2023-07-30T15:13:41;0;0;
61592;PMS5003;70568;51.378;-1.342;2023-07-30T15:16:07;0;0;
61592;PMS5003;70568;51.378;-1.342;2023-07-30T15:18:33;0;0;
61592;PMS5003;70568;51.378;-1.342;2023-07-30T15:21:00;0;0;
61592;PMS5003;70568;51.378;-1.342;2023-07-30T15:23:26;1;1;
61592;PMS5003;70568;51.378;-1.342;2023-07-30T15:25:53;3;2;
61592;PMS5003;70568;51.378;-1.342;2023-07-30T15:28:19;3;3;
61592;PMS5003;70568;51.378;-1.342;2023-07-30T15:30:46;4;3;
61592;PMS5003;70568;51.378;-1.342;2023-07-30T15:33:13;5;5;
61592;PMS5003;70568;51.378;-1.342;2023-07-30T15:35:40;7;6;
61592;PMS5003;70568;51.378;-1.342;2023-07-30T15:38:07;1;1;
61592;PMS5003;70568;51.378;-1.342;2023-07-30T15:40:33;3;3;
61592;PMS5003;70568;51.378;-1.342;2023-07-30T15:43:00;5;2;
61592;PMS5003;70568;51.378;-1.342;2023-07-30T15:45:27;7;6;
61592;PMS5003;70568;51.378;-1.342;2023-07-30T15:47:54;4;4;
61592;PMS5003;70568;51.378;-1.342;2023-07-30T15:50:21;7;7;
61592;PMS5003;70568;51.378;-1.342;2023-07-30T15:52:47;7;6;
61592;PMS5003;70568;51.378;-1.342;2023-07-30T15:55:14;5;5;
61592;PMS5003;70568;51.378;-1.342;2023-07-30T15:57:41;7;6;
61592;PMS5003;70568;51.378;-1.342;2023-07-30T16:00:08;7;7;
61592;PMS5003;70568;51.378;-1.342;2023-07-30T16:02:35;7;5;
61592;PMS5003;70568;51.378;-1.342;2023-07-30T16:05:01;8;8;
61592;PMS5003;70568;51.378;-1.342;2023-07-30T16:07:28;4;4;
61592;PMS5003;70568;51.378;-1.342;2023-07-30T16:09:54;6;6;
61592;PMS5003;70568;51.378;-1.342;2023-07-30T16:12:21;7;7;
61592;PMS5003;70568;51.378;-1.342;2023-07-30T16:14:50;7;7;
61592;PMS5003;70568;51.378;-1.342;2023-07-30T16:17:17;6;5;
61592;PMS5003;70568;51.378;-1.342;2023-07-30T16:19:43;8;7;
61592;PMS5003;70568;51.378;-1.342;2023-07-30T16:22:11;7;6;
61592;PMS5003;70568;51.378;-1.342;2023-07-30T16:24:38;11;10;
61592;PMS5003;70568;51.378;-1.342;2023-07-30T16:27:04;7;7;
61592;PMS5003;70568;51.378;-1.342;2023-07-30T16:29:30;13;11;
61592;PMS5003;70568;51.378;-1.342;2023-07-30T16:31:57;6;6;
61592;PMS5003;70568;51.378;-1.342;2023-07-30T16:34:23;6;5;